Seven Sins — ZCOD6 — position and weather

sailwx.info

Track history (hours):
 
Tides and Currents Weather Stations Pressure Air Temp Water Temp Dewpoint Dewpoint Depression Visibility Wind Speed Wind Dir Waves Ship Positions

Seven Sins

Last reported at 2014-Jul-28 11:34 UTC. Time now 2014-Jul-28 12:20 UTC.
Position N 43°13' E 006°40'.

Length 43 m; draft 3.1 m.

Type: Pleasure craft. MMSI: 319425000.

Date/timePositionNaut miles runAvg speedWind from/ knotsBaromVisibWave heightAir tempDewpointWater temp
2014-Jul-28 11:34N 43°13' E 006°40'3 0.2
2014-Jul-27 18:06N 43°16' E 006°38'0 0.5
2014-Jul-27 17:33N 43°16' E 006°38'0 0.2
2014-Jul-27 16:31N 43°17' E 006°38'6 1.1
2014-Jul-27 11:25N 43°12' E 006°41'6 6.4
2014-Jul-27 10:33N 43°17' E 006°39'1 1.3
2014-Jul-27 09:29N 43°16' E 006°37'0 0.0
2014-Jul-27 08:08N 43°16' E 006°37'0 0.0
2014-Jul-27 07:32N 43°16' E 006°37'0 0.0
2014-Jul-27 06:32N 43°16' E 006°37'0 0.0
2014-Jul-27 05:29N 43°16' E 006°37'0 0.0
2014-Jul-27 04:29N 43°16' E 006°37'0 0.0
2014-Jul-27 03:32N 43°16' E 006°37'0 0.0
2014-Jul-27 02:20N 43°16' E 006°37'0 0.0
2014-Jul-27 01:29N 43°16' E 006°37'0 0.0
2014-Jul-27 00:32N 43°16' E 006°37'0 0.0
2014-Jul-26 23:29N 43°16' E 006°37'0 0.0
2014-Jul-26 22:32N 43°16' E 006°37'0 0.0
2014-Jul-26 21:29N 43°16' E 006°37'0 0.0
2014-Jul-26 20:23N 43°16' E 006°37'0 0.0
2014-Jul-26 18:18N 43°16' E 006°37'0 0.0
2014-Jul-26 17:17N 43°16' E 006°37'1 0.7
2014-Jul-26 16:30N 43°17' E 006°37'5 5.3
2014-Jul-26 15:33N 43°13' E 006°42'2 0.3
2014-Jul-26 10:18N 43°12' E 006°41'6 7.6
2014-Jul-26 09:33N 43°17' E 006°41'2 2.4
2014-Jul-26 08:32N 43°16' E 006°37'0 0.0
2014-Jul-26 07:32N 43°16' E 006°37'0 0.0
2014-Jul-26 06:26N 43°16' E 006°37'0 0.0
2014-Jul-26 05:32N 43°16' E 006°37'0 0.0
2014-Jul-26 04:32N 43°16' E 006°37'0 0.0
2014-Jul-26 03:23N 43°16' E 006°37'0 0.0
2014-Jul-26 02:14N 43°16' E 006°37'0 0.0
2014-Jul-26 01:32N 43°16' E 006°37'0 0.0
2014-Jul-26 00:26N 43°16' E 006°37'0 0.0
2014-Jul-25 23:32N 43°16' E 006°37'0 0.0
2014-Jul-25 22:32N 43°16' E 006°37'0 0.0
2014-Jul-25 21:32N 43°16' E 006°37'0 0.0
2014-Jul-25 20:32N 43°16' E 006°37'0 0.0
2014-Jul-25 19:32N 43°16' E 006°37'0 0.0
2014-Jul-25 18:32N 43°16' E 006°37'0 0.0
2014-Jul-25 17:23N 43°16' E 006°37'0 0.0
2014-Jul-25 15:26N 43°16' E 006°37'2 2.7
2014-Jul-25 14:33N 43°17' E 006°40'15 7.6
2014-Jul-25 12:32N 43°06' E 006°26'9 9.5
2014-Jul-25 11:33N 43°05' E 006°13'3 2.5
2014-Jul-25 10:31N 43°05' E 006°10'0 0.3
2014-Jul-25 09:34N 43°05' E 006°10'1110.6
2014-Jul-25 08:33N 43°06' E 006°25'1110.5
2014-Jul-25 07:30N 43°10' E 006°39'7 7.5
2014-Jul-25 06:32N 43°17' E 006°40'  
2014-Jul-22 16:33N 43°16' E 006°38'3 3.1
2014-Jul-22 15:33N 43°15' E 006°42'2 1.7
2014-Jul-22 14:25N 43°13' E 006°40'0 0.0
2014-Jul-22 13:31N 43°13' E 006°40'0 0.0
2014-Jul-22 12:31N 43°13' E 006°40'0 0.0
2014-Jul-22 11:31N 43°13' E 006°40'0 0.0
2014-Jul-22 10:31N 43°13' E 006°40'0 0.0
2014-Jul-22 09:31N 43°13' E 006°40'3 3.1
2014-Jul-22 08:33N 43°15' E 006°43'1110.7
2014-Jul-22 07:33N 43°23' E 006°54'1110.5
2014-Jul-22 06:34N 43°30' E 007°04'4 3.5
2014-Jul-22 05:31N 43°33' E 007°05'0 0.0
2014-Jul-22 04:25N 43°33' E 007°05'0 0.0
2014-Jul-22 03:31N 43°33' E 007°05'0 0.0
2014-Jul-22 02:31N 43°33' E 007°05'0 0.0
2014-Jul-22 01:31N 43°33' E 007°05'0 0.0
2014-Jul-22 00:25N 43°33' E 007°05'0 0.0
2014-Jul-21 23:31N 43°33' E 007°05'0 0.0
2014-Jul-21 22:31N 43°33' E 007°05'0 0.0
2014-Jul-21 21:31N 43°33' E 007°05'0 0.0
2014-Jul-21 20:31N 43°33' E 007°05'0 0.0
2014-Jul-21 20:07N 43°33' E 007°05'0 0.0
2014-Jul-21 19:31N 43°33' E 007°05'0 0.0
2014-Jul-21 18:31N 43°33' E 007°05'0 0.0
2014-Jul-21 17:31N 43°33' E 007°05'0 0.0
2014-Jul-21 16:31N 43°33' E 007°05'0 0.0
2014-Jul-21 15:31N 43°33' E 007°05'0 0.2
2014-Jul-21 14:34N 43°33' E 007°06'2 2.0
2014-Jul-21 13:20N 43°31' E 007°04'0 0.0
2014-Jul-21 12:20N 43°31' E 007°04'0 0.0
2014-Jul-21 11:20N 43°31' E 007°04'0 0.0
2014-Jul-21 10:08N 43°31' E 007°04'0 0.0
2014-Jul-21 09:32N 43°31' E 007°04'0 0.0
2014-Jul-21 08:20N 43°31' E 007°04'1 1.1
2014-Jul-21 07:32N 43°32' E 007°04'2 2.2
2014-Jul-21 06:33N 43°33' E 007°07'0 0.0
2014-Jul-21 05:33N 43°33' E 007°07'0 0.0
2014-Jul-21 04:33N 43°33' E 007°07'0 0.0
2014-Jul-21 03:33N 43°33' E 007°07'0 0.0
2014-Jul-21 02:33N 43°33' E 007°07'0 0.0
2014-Jul-21 01:33N 43°33' E 007°07'0 0.0
2014-Jul-21 00:33N 43°33' E 007°07'0 0.0
2014-Jul-20 23:33N 43°33' E 007°07'0 0.0
2014-Jul-20 22:33N 43°33' E 007°07'0 0.0
2014-Jul-20 21:33N 43°33' E 007°07'0 0.0
2014-Jul-20 20:33N 43°33' E 007°07'0 0.0
2014-Jul-20 19:33N 43°33' E 007°07'0 0.0
2014-Jul-20 18:33N 43°33' E 007°07'0 0.0
2014-Jul-20 17:33N 43°33' E 007°07'0 0.0
2014-Jul-20 16:33N 43°33' E 007°07'0 0.0
2014-Jul-20 15:33N 43°33' E 007°07'0 0.0
2014-Jul-20 14:34N 43°33' E 007°07'0 0.0
2014-Jul-20 13:33N 43°33' E 007°07'0 0.1
2014-Jul-20 12:33N 43°33' E 007°07'5 4.9
2014-Jul-20 11:33N 43°35' E 007°13'13 2.1
2014-Jul-20 05:20N 43°44' E 007°25'0 0.0
2014-Jul-20 01:32N 43°44' E 007°25'0 0.0
2014-Jul-19 15:33N 43°44' E 007°25'2 2.2
2014-Jul-19 14:32N 43°42' E 007°23'2 2.3
2014-Jul-19 13:33N 43°42' E 007°20'0 0.0
2014-Jul-19 12:33N 43°42' E 007°20'0 0.0
2014-Jul-19 11:33N 43°42' E 007°20'0 0.1
2014-Jul-19 10:33N 43°42' E 007°20'2 1.3
2014-Jul-19 09:15N 43°43' E 007°22'0 0.0
2014-Jul-19 08:33N 43°43' E 007°22'0 0.0
2014-Jul-19 07:27N 43°43' E 007°22'0 0.0
2014-Jul-19 06:27N 43°43' E 007°22'0 0.0
2014-Jul-19 05:27N 43°43' E 007°22'0 0.0
2014-Jul-19 04:27N 43°43' E 007°22'0 0.0
2014-Jul-19 03:21N 43°43' E 007°22'0 0.0
2014-Jul-19 02:27N 43°43' E 007°22'0 0.0
2014-Jul-19 01:33N 43°43' E 007°22'0 0.0
2014-Jul-19 00:21N 43°43' E 007°22'0 0.0
2014-Jul-18 23:33N 43°43' E 007°22'0 0.0
2014-Jul-18 22:33N 43°43' E 007°22'0 0.0
2014-Jul-18 21:33N 43°43' E 007°22'0 0.0
2014-Jul-18 20:33N 43°43' E 007°22'0 0.0
2014-Jul-18 19:33N 43°43' E 007°22'10 1.3
2014-Jul-18 12:12N 43°47' E 007°34'  
Track history (hours):
 
Tides and Currents Weather Stations Pressure Air Temp Water Temp Dewpoint Dewpoint Depression Visibility Wind Speed Wind Dir Waves Ship Positions

Seven Sins

Last reported at 2014-Jul-28 11:34 UTC. Time now 2014-Jul-28 12:20 UTC.
Position N 43°13' E 006°40'.

Length 43 m; draft 3.1 m.

Type: Pleasure craft. MMSI: 319425000.

Date/timePositionNaut miles runAvg speedWind from/ knotsBaromVisibWave heightAir tempDewpointWater temp
2014-Jul-28 11:34N 43°13' E 006°40'3 0.2
2014-Jul-27 18:06N 43°16' E 006°38'0 0.5
2014-Jul-27 17:33N 43°16' E 006°38'0 0.2
2014-Jul-27 16:31N 43°17' E 006°38'6 1.1
2014-Jul-27 11:25N 43°12' E 006°41'6 6.4
2014-Jul-27 10:33N 43°17' E 006°39'1 1.3
2014-Jul-27 09:29N 43°16' E 006°37'0 0.0
2014-Jul-27 08:08N 43°16' E 006°37'0 0.0
2014-Jul-27 07:32N 43°16' E 006°37'0 0.0
2014-Jul-27 06:32N 43°16' E 006°37'0 0.0
2014-Jul-27 05:29N 43°16' E 006°37'0 0.0
2014-Jul-27 04:29N 43°16' E 006°37'0 0.0
2014-Jul-27 03:32N 43°16' E 006°37'0 0.0
2014-Jul-27 02:20N 43°16' E 006°37'0 0.0
2014-Jul-27 01:29N 43°16' E 006°37'0 0.0
2014-Jul-27 00:32N 43°16' E 006°37'0 0.0
2014-Jul-26 23:29N 43°16' E 006°37'0 0.0
2014-Jul-26 22:32N 43°16' E 006°37'0 0.0
2014-Jul-26 21:29N 43°16' E 006°37'0 0.0
2014-Jul-26 20:23N 43°16' E 006°37'0 0.0
2014-Jul-26 18:18N 43°16' E 006°37'0 0.0
2014-Jul-26 17:17N 43°16' E 006°37'1 0.7
2014-Jul-26 16:30N 43°17' E 006°37'5 5.3
2014-Jul-26 15:33N 43°13' E 006°42'2 0.3
2014-Jul-26 10:18N 43°12' E 006°41'6 7.6
2014-Jul-26 09:33N 43°17' E 006°41'2 2.4
2014-Jul-26 08:32N 43°16' E 006°37'0 0.0
2014-Jul-26 07:32N 43°16' E 006°37'0 0.0
2014-Jul-26 06:26N 43°16' E 006°37'0 0.0
2014-Jul-26 05:32N 43°16' E 006°37'0 0.0
2014-Jul-26 04:32N 43°16' E 006°37'0 0.0
2014-Jul-26 03:23N 43°16' E 006°37'0 0.0
2014-Jul-26 02:14N 43°16' E 006°37'0 0.0
2014-Jul-26 01:32N 43°16' E 006°37'0 0.0
2014-Jul-26 00:26N 43°16' E 006°37'0 0.0
2014-Jul-25 23:32N 43°16' E 006°37'0 0.0
2014-Jul-25 22:32N 43°16' E 006°37'0 0.0
2014-Jul-25 21:32N 43°16' E 006°37'0 0.0
2014-Jul-25 20:32N 43°16' E 006°37'0 0.0
2014-Jul-25 19:32N 43°16' E 006°37'0 0.0
2014-Jul-25 18:32N 43°16' E 006°37'0 0.0
2014-Jul-25 17:23N 43°16' E 006°37'0 0.0
2014-Jul-25 15:26N 43°16' E 006°37'2 2.7
2014-Jul-25 14:33N 43°17' E 006°40'15 7.6
2014-Jul-25 12:32N 43°06' E 006°26'9 9.5
2014-Jul-25 11:33N 43°05' E 006°13'3 2.5
2014-Jul-25 10:31N 43°05' E 006°10'0 0.3
2014-Jul-25 09:34N 43°05' E 006°10'1110.6
2014-Jul-25 08:33N 43°06' E 006°25'1110.5
2014-Jul-25 07:30N 43°10' E 006°39'7 7.5
2014-Jul-25 06:32N 43°17' E 006°40'  
2014-Jul-22 16:33N 43°16' E 006°38'3 3.1
2014-Jul-22 15:33N 43°15' E 006°42'2 1.7
2014-Jul-22 14:25N 43°13' E 006°40'0 0.0
2014-Jul-22 13:31N 43°13' E 006°40'0 0.0
2014-Jul-22 12:31N 43°13' E 006°40'0 0.0
2014-Jul-22 11:31N 43°13' E 006°40'0 0.0
2014-Jul-22 10:31N 43°13' E 006°40'0 0.0
2014-Jul-22 09:31N 43°13' E 006°40'3 3.1
2014-Jul-22 08:33N 43°15' E 006°43'1110.7
2014-Jul-22 07:33N 43°23' E 006°54'1110.5
2014-Jul-22 06:34N 43°30' E 007°04'4 3.5
2014-Jul-22 05:31N 43°33' E 007°05'0 0.0
2014-Jul-22 04:25N 43°33' E 007°05'0 0.0
2014-Jul-22 03:31N 43°33' E 007°05'0 0.0
2014-Jul-22 02:31N 43°33' E 007°05'0 0.0
2014-Jul-22 01:31N 43°33' E 007°05'0 0.0
2014-Jul-22 00:25N 43°33' E 007°05'0 0.0
2014-Jul-21 23:31N 43°33' E 007°05'0 0.0
2014-Jul-21 22:31N 43°33' E 007°05'0 0.0
2014-Jul-21 21:31N 43°33' E 007°05'0 0.0
2014-Jul-21 20:31N 43°33' E 007°05'0 0.0
2014-Jul-21 20:07N 43°33' E 007°05'0 0.0
2014-Jul-21 19:31N 43°33' E 007°05'0 0.0
2014-Jul-21 18:31N 43°33' E 007°05'0 0.0
2014-Jul-21 17:31N 43°33' E 007°05'0 0.0
2014-Jul-21 16:31N 43°33' E 007°05'0 0.0
2014-Jul-21 15:31N 43°33' E 007°05'0 0.2
2014-Jul-21 14:34N 43°33' E 007°06'2 2.0
2014-Jul-21 13:20N 43°31' E 007°04'0 0.0
2014-Jul-21 12:20N 43°31' E 007°04'0 0.0
2014-Jul-21 11:20N 43°31' E 007°04'0 0.0
2014-Jul-21 10:08N 43°31' E 007°04'0 0.0
2014-Jul-21 09:32N 43°31' E 007°04'0 0.0
2014-Jul-21 08:20N 43°31' E 007°04'1 1.1
2014-Jul-21 07:32N 43°32' E 007°04'2 2.2
2014-Jul-21 06:33N 43°33' E 007°07'0 0.0
2014-Jul-21 05:33N 43°33' E 007°07'0 0.0
2014-Jul-21 04:33N 43°33' E 007°07'0 0.0
2014-Jul-21 03:33N 43°33' E 007°07'0 0.0
2014-Jul-21 02:33N 43°33' E 007°07'0 0.0
2014-Jul-21 01:33N 43°33' E 007°07'0 0.0
2014-Jul-21 00:33N 43°33' E 007°07'0 0.0
2014-Jul-20 23:33N 43°33' E 007°07'0 0.0
2014-Jul-20 22:33N 43°33' E 007°07'0 0.0
2014-Jul-20 21:33N 43°33' E 007°07'0 0.0
2014-Jul-20 20:33N 43°33' E 007°07'0 0.0
2014-Jul-20 19:33N 43°33' E 007°07'0 0.0
2014-Jul-20 18:33N 43°33' E 007°07'0 0.0
2014-Jul-20 17:33N 43°33' E 007°07'0 0.0
2014-Jul-20 16:33N 43°33' E 007°07'0 0.0
2014-Jul-20 15:33N 43°33' E 007°07'0 0.0
2014-Jul-20 14:34N 43°33' E 007°07'0 0.0
2014-Jul-20 13:33N 43°33' E 007°07'0 0.1
2014-Jul-20 12:33N 43°33' E 007°07'5 4.9
2014-Jul-20 11:33N 43°35' E 007°13'13 2.1
2014-Jul-20 05:20N 43°44' E 007°25'0 0.0
2014-Jul-20 01:32N 43°44' E 007°25'0 0.0
2014-Jul-19 15:33N 43°44' E 007°25'2 2.2
2014-Jul-19 14:32N 43°42' E 007°23'2 2.3
2014-Jul-19 13:33N 43°42' E 007°20'0 0.0
2014-Jul-19 12:33N 43°42' E 007°20'0 0.0
2014-Jul-19 11:33N 43°42' E 007°20'0 0.1
2014-Jul-19 10:33N 43°42' E 007°20'2 1.3
2014-Jul-19 09:15N 43°43' E 007°22'0 0.0
2014-Jul-19 08:33N 43°43' E 007°22'0 0.0
2014-Jul-19 07:27N 43°43' E 007°22'0 0.0
2014-Jul-19 06:27N 43°43' E 007°22'0 0.0
2014-Jul-19 05:27N 43°43' E 007°22'0 0.0
2014-Jul-19 04:27N 43°43' E 007°22'0 0.0
2014-Jul-19 03:21N 43°43' E 007°22'0 0.0
2014-Jul-19 02:27N 43°43' E 007°22'0 0.0
2014-Jul-19 01:33N 43°43' E 007°22'0 0.0
2014-Jul-19 00:21N 43°43' E 007°22'0 0.0
2014-Jul-18 23:33N 43°43' E 007°22'0 0.0
2014-Jul-18 22:33N 43°43' E 007°22'0 0.0
2014-Jul-18 21:33N 43°43' E 007°22'0 0.0
2014-Jul-18 20:33N 43°43' E 007°22'0 0.0
2014-Jul-18 19:33N 43°43' E 007°22'10 1.3
2014-Jul-18 12:12N 43°47' E 007°34'  

Dump ship's entire track history